createdAt,value
2022-12-22T00:01:05.435Z,100172.94
2022-12-22T00:03:51.113Z,100172.91
2022-12-22T00:06:36.676Z,100170.41
2022-12-22T00:09:22.513Z,100169.47
2022-12-22T00:12:07.703Z,100169.63
2022-12-22T00:14:53.477Z,100166.19
2022-12-22T00:17:46.796Z,100159.72
2022-12-22T00:20:37.652Z,100170.53
2022-12-22T00:23:23.341Z,100155.78
2022-12-22T00:26:08.770Z,100161.09
2022-12-22T00:28:54.896Z,100150.59
2022-12-22T00:31:41.087Z,100154.03
2022-12-22T00:34:38.724Z,100136.09
2022-12-22T00:37:25.822Z,100148.03
2022-12-22T00:40:11.004Z,100141.94
2022-12-22T00:42:56.235Z,100137.78
2022-12-22T00:45:41.771Z,100135.94
2022-12-22T00:48:42.136Z,100132.63
2022-12-22T00:51:27.888Z,100141.97
2022-12-22T00:54:13.180Z,100129.91
2022-12-22T00:56:58.452Z,100122.03
2022-12-22T00:59:44.648Z,100120.47
2022-12-22T01:02:30.121Z,100120.44
2022-12-22T01:05:16.049Z,100112.63
2022-12-22T01:08:01.238Z,100120.09
2022-12-22T01:10:46.199Z,100114.28
2022-12-22T01:13:33.091Z,100118.47
2022-12-22T01:16:18.783Z,100117.91
2022-12-22T01:19:04.209Z,100116.19
2022-12-22T01:21:49.675Z,100113.38
2022-12-22T01:24:36.763Z,100103.84
2022-12-22T01:27:22.838Z,100114.56
2022-12-22T01:30:07.993Z,100108.28
2022-12-22T01:32:53.068Z,100101.22
2022-12-22T01:35:51.472Z,100100.22
2022-12-22T01:38:36.674Z,100107.47
2022-12-22T01:41:22.792Z,100092.59
2022-12-22T01:44:08.410Z,100089.28
2022-12-22T01:47:02.141Z,100086.56
2022-12-22T01:49:59.895Z,100090.00
2022-12-22T01:52:51.509Z,100086.66
2022-12-22T01:55:40.245Z,100084.69
2022-12-22T01:58:39.296Z,100079.00
2022-12-22T02:01:24.555Z,100079.56
2022-12-22T02:04:09.785Z,100082.06
2022-12-22T02:07:00.431Z,100078.91
2022-12-22T02:10:16.829Z,100067.81
2022-12-22T02:13:13.125Z,100070.13
2022-12-22T02:16:06.272Z,100064.88
2022-12-22T02:19:26.926Z,100048.59
2022-12-22T02:22:36.728Z,100068.72
2022-12-22T02:25:25.991Z,100066.94
2022-12-22T02:28:12.231Z,100065.03
2022-12-22T02:30:58.379Z,100056.66
2022-12-22T02:33:44.083Z,100065.78
2022-12-22T02:36:49.538Z,100057.41
2022-12-22T02:39:53.359Z,100065.22
2022-12-22T02:42:54.132Z,100052.94
2022-12-22T02:45:48.864Z,100044.22
2022-12-22T02:49:00.343Z,100039.97
2022-12-22T02:51:47.978Z,100039.41
2022-12-22T02:54:33.533Z,100048.13
2022-12-22T02:57:21.727Z,100048.78
2022-12-22T03:00:06.874Z,100032.53
2022-12-22T03:02:52.328Z,100041.00
2022-12-22T03:05:37.529Z,100024.63
2022-12-22T03:08:22.596Z,100028.91
2022-12-22T03:11:07.754Z,100033.19
2022-12-22T03:13:52.947Z,100022.03
2022-12-22T03:16:38.240Z,100014.13
2022-12-22T03:19:23.459Z,100022.72
2022-12-22T03:22:08.706Z,100024.44
2022-12-22T03:24:53.826Z,100013.22
2022-12-22T03:27:20.362Z,100013.16
2022-12-22T03:29:46.785Z,100010.59
2022-12-22T03:32:13.287Z,100005.34
2022-12-22T03:34:39.726Z,99991.31
2022-12-22T03:37:06.183Z,99994.16
2022-12-22T03:39:32.644Z,99993.91
2022-12-22T03:42:17.651Z,99990.28
2022-12-22T03:45:02.798Z,99991.44
2022-12-22T03:47:31.142Z,99989.63
2022-12-22T03:49:57.614Z,99985.53
2022-12-22T03:52:24.162Z,99981.00
2022-12-22T03:54:51.323Z,99980.19
2022-12-22T03:57:17.786Z,99976.88
2022-12-22T03:59:44.239Z,99975.94
2022-12-22T04:02:10.880Z,99969.91
2022-12-22T04:04:37.397Z,99955.31
2022-12-22T04:07:03.851Z,99952.66
2022-12-22T04:09:30.325Z,99953.53
2022-12-22T04:12:15.422Z,99948.31
2022-12-22T04:14:41.917Z,99953.47
2022-12-22T04:17:09.747Z,99945.84
2022-12-22T04:19:36.196Z,99929.34
2022-12-22T04:22:02.735Z,99937.94
2022-12-22T04:24:29.289Z,99936.88
2022-12-22T04:26:55.790Z,99939.66
2022-12-22T04:29:22.251Z,99942.28
2022-12-22T04:31:48.749Z,99940.50
2022-12-22T04:34:15.322Z,99935.41
2022-12-22T04:36:41.772Z,99933.53
2022-12-22T04:39:08.246Z,99928.38
2022-12-22T04:41:34.699Z,99924.06
2022-12-22T04:44:01.187Z,99923.16
2022-12-22T04:46:27.789Z,99921.44
2022-12-22T04:48:59.641Z,99918.88
2022-12-22T04:51:27.016Z,99910.19
2022-12-22T04:53:53.550Z,99911.94
2022-12-22T04:56:20.020Z,99907.59
2022-12-22T04:58:46.533Z,99901.59
2022-12-22T05:01:15.810Z,99897.94
2022-12-22T05:03:42.675Z,99898.00
2022-12-22T05:06:09.283Z,99900.63
2022-12-22T05:08:36.062Z,99894.66
2022-12-22T05:11:03.015Z,99884.28
2022-12-22T05:13:30.960Z,99875.56
2022-12-22T05:16:08.882Z,99881.66
2022-12-22T05:18:35.784Z,99881.66
2022-12-22T05:21:04.542Z,99879.91
2022-12-22T05:23:30.993Z,99876.44
2022-12-22T05:25:57.522Z,99882.44
2022-12-22T05:28:24.000Z,99878.16
2022-12-22T05:30:50.475Z,99878.91
2022-12-22T05:33:17.123Z,99874.56
2022-12-22T05:35:43.614Z,99874.44
2022-12-22T05:38:10.085Z,99868.47
2022-12-22T05:40:36.521Z,99869.31
2022-12-22T05:43:03.089Z,99865.00
2022-12-22T05:45:29.525Z,99865.97
2022-12-22T05:47:56.041Z,99858.16
2022-12-22T05:50:24.573Z,99866.81
2022-12-22T05:52:51.008Z,99862.47
2022-12-22T05:55:17.601Z,99866.84
2022-12-22T05:57:44.118Z,99864.22
2022-12-22T06:00:13.822Z,99861.56
2022-12-22T06:02:41.605Z,99867.56
2022-12-22T06:05:08.625Z,99873.56
2022-12-22T06:07:35.073Z,99860.47
2022-12-22T06:10:07.856Z,99861.53
2022-12-22T06:12:38.096Z,99871.97
2022-12-22T06:15:05.670Z,99872.00
2022-12-22T06:17:32.123Z,99871.16
2022-12-22T06:19:58.569Z,99872.03
2022-12-22T06:22:25.035Z,99859.84
2022-12-22T06:24:51.512Z,99865.09
2022-12-22T06:27:17.954Z,99864.16
2022-12-22T06:29:44.425Z,99868.53
2022-12-22T06:32:10.848Z,99869.28
2022-12-22T06:34:37.324Z,99864.13
2022-12-22T06:37:03.792Z,99857.22
2022-12-22T06:39:30.420Z,99852.06
2022-12-22T06:42:15.327Z,99853.78
2022-12-22T06:44:41.904Z,99851.28
2022-12-22T06:47:08.432Z,99859.84
2022-12-22T06:49:34.908Z,99851.22
2022-12-22T06:52:01.359Z,99856.41
2022-12-22T06:54:27.838Z,99848.59
2022-12-22T06:56:54.331Z,99850.31
2022-12-22T06:59:20.918Z,99855.53
2022-12-22T07:01:47.477Z,99860.72
2022-12-22T07:04:19.835Z,99856.41
2022-12-22T07:06:47.653Z,99857.19
2022-12-22T07:09:14.131Z,99858.97
2022-12-22T07:11:40.729Z,99869.38
2022-12-22T07:14:07.333Z,99866.78
2022-12-22T07:16:34.472Z,99869.47
2022-12-22T07:19:01.034Z,99858.16
2022-12-22T07:21:27.484Z,99869.38
2022-12-22T07:23:53.942Z,99872.03
2022-12-22T07:26:20.436Z,99859.81
2022-12-22T07:28:46.908Z,99858.09
2022-12-22T07:31:14.320Z,99865.91
2022-12-22T07:33:40.909Z,99859.06
2022-12-22T07:36:12.479Z,99861.59
2022-12-22T07:38:41.027Z,99862.53
2022-12-22T07:41:28.321Z,99862.53
2022-12-22T07:43:56.481Z,99855.59
2022-12-22T07:46:24.010Z,99857.38
2022-12-22T07:49:09.182Z,99854.69
2022-12-22T07:51:37.190Z,99858.19
2022-12-22T07:54:10.855Z,99858.19
2022-12-22T07:56:37.538Z,99865.16
2022-12-22T07:59:04.057Z,99871.19
2022-12-22T08:01:30.600Z,99868.63
2022-12-22T08:03:58.201Z,99872.94
2022-12-22T08:06:25.126Z,99874.69
2022-12-22T08:08:52.075Z,99864.28
2022-12-22T08:11:18.803Z,99868.63
2022-12-22T08:13:46.548Z,99875.56
2022-12-22T08:16:14.111Z,99869.50
2022-12-22T08:18:41.000Z,99861.66
2022-12-22T08:21:08.138Z,99868.63
2022-12-22T08:23:35.444Z,99870.38
2022-12-22T08:26:07.806Z,99866.91
2022-12-22T08:28:37.521Z,99858.22
2022-12-22T08:31:04.247Z,99864.28
2022-12-22T08:33:30.846Z,99866.88
2022-12-22T08:36:04.283Z,99870.31
2022-12-22T08:38:34.584Z,99866.00
2022-12-22T08:41:01.056Z,99873.84
2022-12-22T08:43:29.029Z,99865.16
2022-12-22T08:45:55.511Z,99872.09
2022-12-22T08:48:21.954Z,99873.81
2022-12-22T08:50:48.409Z,99873.81
2022-12-22T08:53:45.309Z,99878.19
2022-12-22T08:56:01.313Z,99875.53
2022-12-22T08:58:27.751Z,99878.13
2022-12-22T09:00:54.253Z,99867.72
2022-12-22T09:03:20.953Z,99873.84
2022-12-22T09:05:47.505Z,99874.72
2022-12-22T09:08:13.987Z,99881.59
2022-12-22T09:10:43.299Z,99882.47
2022-12-22T09:13:09.759Z,99886.00
2022-12-22T09:15:37.098Z,99890.31
2022-12-22T09:18:03.596Z,99890.31
2022-12-22T09:20:30.070Z,99890.34
2022-12-22T09:22:56.514Z,99879.91
2022-12-22T09:25:22.995Z,99883.38
2022-12-22T09:27:49.429Z,99889.44
2022-12-22T09:30:16.017Z,99891.19
2022-12-22T09:32:42.497Z,99892.94
2022-12-22T09:35:09.235Z,99891.16
2022-12-22T09:37:35.694Z,99884.25
2022-12-22T09:40:02.189Z,99885.13
2022-12-22T09:42:30.178Z,99885.09
2022-12-22T09:44:56.707Z,99887.75
2022-12-22T09:47:30.799Z,99890.34
2022-12-22T09:49:58.142Z,99892.06
2022-12-22T09:52:39.497Z,99901.63
2022-12-22T09:55:26.218Z,99899.88
2022-12-22T09:57:56.049Z,99906.84
2022-12-22T10:00:28.297Z,99901.59
2022-12-22T10:03:19.790Z,99896.28
2022-12-22T10:05:55.993Z,99890.34
2022-12-22T10:08:29.143Z,99894.69
2022-12-22T10:10:56.750Z,99886.81
2022-12-22T10:13:23.222Z,99887.53
2022-12-22T10:15:49.793Z,99882.44
2022-12-22T10:18:18.589Z,99886.75
2022-12-22T10:20:47.364Z,99878.88
2022-12-22T10:23:29.911Z,99891.16
2022-12-22T10:28:52.022Z,99882.53
2022-12-22T10:31:21.943Z,99873.75
2022-12-22T10:33:51.243Z,99875.47
2022-12-22T10:36:29.284Z,99873.75
2022-12-22T10:38:59.671Z,99881.56
2022-12-22T10:41:29.063Z,99878.97
2022-12-22T10:43:57.960Z,99880.69
2022-12-22T10:46:33.429Z,99879.00
2022-12-22T10:49:13.640Z,99875.50
2022-12-22T10:51:41.325Z,99884.25
2022-12-22T10:54:07.764Z,99884.25
2022-12-22T10:56:34.749Z,99883.38
2022-12-22T10:59:01.152Z,99879.75
2022-12-22T11:01:33.194Z,99879.03
2022-12-22T11:04:25.978Z,99880.78
2022-12-22T11:06:53.718Z,99879.91
2022-12-22T11:09:35.933Z,99881.63
2022-12-22T11:12:08.737Z,99872.09
2022-12-22T11:15:04.470Z,99868.47
2022-12-22T11:17:59.797Z,99857.28
2022-12-22T11:20:32.258Z,99864.28
2022-12-22T11:23:20.733Z,99873.84
2022-12-22T11:25:50.198Z,99862.53
2022-12-22T11:28:41.506Z,99869.50
2022-12-22T11:31:18.076Z,99877.31
2022-12-22T11:34:21.064Z,99873.84
2022-12-22T11:37:16.058Z,99871.22
2022-12-22T11:39:59.074Z,99879.03
2022-12-22T11:43:03.103Z,99880.78
2022-12-22T11:45:59.886Z,99877.28
2022-12-22T11:48:54.979Z,99879.06
2022-12-22T11:51:57.404Z,99888.59
2022-12-22T11:54:45.178Z,99879.03
2022-12-22T11:57:30.310Z,99880.78
2022-12-22T12:00:09.148Z,99884.25
2022-12-22T12:03:01.124Z,99901.50
2022-12-22T12:05:42.835Z,99898.91
2022-12-22T12:08:20.257Z,99907.50
2022-12-22T12:11:18.349Z,99895.44
2022-12-22T12:14:08.433Z,99893.56
2022-12-22T12:17:13.422Z,99896.19
2022-12-22T12:19:52.867Z,99903.97
2022-12-22T12:22:29.506Z,99903.25
2022-12-22T12:25:01.867Z,99908.47
2022-12-22T12:28:05.299Z,99908.31
2022-12-22T12:30:58.743Z,99915.03
2022-12-22T12:33:31.237Z,99913.81
2022-12-22T12:36:09.035Z,99912.47
2022-12-22T12:39:08.409Z,99915.00
2022-12-22T12:41:50.095Z,99919.09
2022-12-22T12:44:19.348Z,99920.28
2022-12-22T12:46:52.392Z,99915.72
2022-12-22T12:49:34.358Z,99925.53
2022-12-22T12:52:04.868Z,99921.00
2022-12-22T12:54:43.682Z,99927.94
2022-12-22T12:57:10.119Z,99920.13
2022-12-22T12:59:42.807Z,99920.00
2022-12-22T13:02:27.991Z,99921.06
2022-12-22T13:05:13.375Z,99926.13
2022-12-22T13:08:12.383Z,99930.94
2022-12-22T13:10:44.731Z,99932.00
2022-12-22T13:13:23.434Z,99938.19
2022-12-22T13:16:12.367Z,99938.75
2022-12-22T13:18:50.858Z,99941.19
2022-12-22T13:24:25.137Z,99932.44
2022-12-22T13:26:55.226Z,99933.66
2022-12-22T13:29:21.740Z,99943.44
2022-12-22T13:31:52.192Z,99944.59
2022-12-22T13:35:28.968Z,99956.16
2022-12-22T13:37:41.817Z,99947.03
2022-12-22T13:40:17.150Z,99953.41
2022-12-22T13:42:47.856Z,99947.34
2022-12-22T13:45:18.991Z,99959.66
2022-12-22T13:47:46.702Z,99959.44
2022-12-22T13:50:34.759Z,99956.69
2022-12-22T13:53:02.556Z,99951.25
2022-12-22T13:55:31.063Z,99962.50
2022-12-22T13:58:24.726Z,99956.41
2022-12-22T14:01:20.855Z,99957.97
2022-12-22T14:04:02.302Z,99973.50
2022-12-22T14:06:36.159Z,99967.63
2022-12-22T14:09:16.926Z,99979.28
2022-12-22T14:11:52.067Z,99975.81
2022-12-22T14:14:25.568Z,99986.22
2022-12-22T14:16:53.775Z,99972.97
2022-12-22T14:19:21.682Z,99980.47
2022-12-22T14:21:56.196Z,99980.88
2022-12-22T14:24:25.521Z,99983.28
2022-12-22T14:26:53.510Z,99983.34
2022-12-22T14:29:23.169Z,99984.94
2022-12-22T14:31:58.861Z,99992.94
2022-12-22T14:34:30.901Z,100000.84
2022-12-22T14:37:00.830Z,99989.69
2022-12-22T14:39:30.896Z,99994.16
2022-12-22T14:42:02.316Z,99997.41
2022-12-22T14:44:32.264Z,99982.13
2022-12-22T14:47:12.519Z,99991.50
2022-12-22T14:49:51.251Z,99994.00
2022-12-22T14:52:25.075Z,99991.69
2022-12-22T14:54:53.562Z,99995.97
2022-12-22T14:57:28.211Z,99993.22
2022-12-22T15:00:25.501Z,99991.59
2022-12-22T15:02:58.464Z,99995.13
2022-12-22T15:05:28.038Z,99998.63
2022-12-22T15:08:06.872Z,100008.06
2022-12-22T15:10:38.754Z,100000.38
2022-12-22T15:13:07.412Z,100007.19
2022-12-22T15:15:34.305Z,100001.19
2022-12-22T15:18:00.769Z,99998.53
2022-12-22T15:20:32.348Z,99992.13
2022-12-22T15:23:01.818Z,99993.06
2022-12-22T15:25:28.265Z,99994.16
2022-12-22T15:27:54.744Z,99988.94
2022-12-22T15:30:27.947Z,99988.81
2022-12-22T15:32:55.504Z,100000.91
2022-12-22T15:35:31.338Z,100007.22
2022-12-22T15:37:58.228Z,99998.56
2022-12-22T15:40:25.479Z,99997.72
2022-12-22T15:42:52.098Z,100002.03
2022-12-22T15:45:19.466Z,100012.34
2022-12-22T15:47:50.314Z,100014.91
2022-12-22T15:50:35.049Z,100022.56
2022-12-22T15:53:05.413Z,100017.56
2022-12-22T15:55:32.032Z,100017.44
2022-12-22T15:57:59.137Z,100022.59
2022-12-22T16:00:26.037Z,100028.03
2022-12-22T16:02:52.757Z,100022.66
2022-12-22T16:05:19.397Z,100025.34
2022-12-22T16:07:45.910Z,100020.22
2022-12-22T16:10:23.759Z,100025.22
2022-12-22T16:12:55.475Z,100023.56
2022-12-22T16:15:22.537Z,100024.41
2022-12-22T16:17:51.701Z,100028.81
2022-12-22T16:20:18.340Z,100021.53
2022-12-22T16:22:45.094Z,100026.22
2022-12-22T16:25:16.905Z,100024.34
2022-12-22T16:27:43.820Z,100027.22
2022-12-22T16:30:21.259Z,100026.63
2022-12-22T16:32:47.947Z,100024.09
2022-12-22T16:35:17.852Z,100019.03
2022-12-22T16:37:45.040Z,100017.09
2022-12-22T16:40:12.272Z,100016.72
2022-12-22T16:45:27.389Z,100029.06
2022-12-22T16:47:54.313Z,100022.91
2022-12-22T16:50:22.581Z,100026.63
2022-12-22T16:52:49.732Z,100021.59
2022-12-22T16:55:20.978Z,100027.63
2022-12-22T16:57:47.594Z,100027.66
2022-12-22T17:00:17.948Z,100031.16
2022-12-22T17:02:47.520Z,100022.47
2022-12-22T17:05:27.005Z,100029.13
2022-12-22T17:07:55.254Z,100036.78
2022-12-22T17:10:22.849Z,100024.66
2022-12-22T17:12:52.099Z,100020.44
2022-12-22T17:15:21.455Z,100025.50
2022-12-22T17:17:49.121Z,100024.03
2022-12-22T17:20:17.128Z,100014.09
2022-12-22T17:22:46.200Z,100021.66
2022-12-22T17:25:25.039Z,100030.03
2022-12-22T17:27:51.610Z,100027.03
2022-12-22T17:30:23.239Z,100021.09
2022-12-22T17:32:52.806Z,100024.91
2022-12-22T17:35:21.271Z,100018.03
2022-12-22T17:37:48.244Z,100017.09
2022-12-22T17:40:30.813Z,100010.78
2022-12-22T17:43:00.318Z,100013.47
2022-12-22T17:45:26.930Z,100022.47
2022-12-22T17:47:53.423Z,100009.31
2022-12-22T17:50:21.426Z,100010.41
2022-12-22T17:52:48.036Z,100012.63
2022-12-22T17:56:07.196Z,100013.59
2022-12-22T17:58:27.341Z,100007.63
2022-12-22T18:00:53.807Z,100003.13
2022-12-22T18:03:20.534Z,100014.31
2022-12-22T18:05:48.136Z,100013.50
2022-12-22T18:08:19.990Z,100010.75
2022-12-22T18:10:47.258Z,99999.97
2022-12-22T18:13:16.768Z,100002.22
2022-12-22T18:15:43.363Z,99994.44
2022-12-22T18:18:15.036Z,100004.41
2022-12-22T18:20:42.271Z,100000.59
2022-12-22T18:23:16.885Z,99998.22
2022-12-22T18:25:43.421Z,99997.25
2022-12-22T18:28:14.913Z,100003.00
2022-12-22T18:30:41.726Z,99999.22
2022-12-22T18:33:08.802Z,99999.94
2022-12-22T18:35:37.728Z,99994.66
2022-12-22T18:38:05.031Z,100002.31
2022-12-22T18:40:37.217Z,100004.31
2022-12-22T18:43:06.991Z,99997.97
2022-12-22T18:45:33.574Z,100002.16
2022-12-22T18:48:00.023Z,99987.50
2022-12-22T18:50:29.003Z,99996.94
2022-12-22T18:52:57.601Z,99991.69
2022-12-22T18:55:27.584Z,99993.66
2022-12-22T18:57:55.798Z,99995.38
2022-12-22T19:00:25.715Z,99989.47
2022-12-22T19:02:54.188Z,99986.84
2022-12-22T19:05:31.551Z,99990.94
2022-12-22T19:07:58.553Z,99985.72
2022-12-22T19:10:38.095Z,99986.84
2022-12-22T19:13:07.576Z,99976.47
2022-12-22T19:15:36.484Z,99980.63
2022-12-22T19:18:03.361Z,99973.66
2022-12-22T19:20:29.791Z,99981.75
2022-12-22T19:22:56.264Z,99974.47
2022-12-22T19:25:28.634Z,99974.59
2022-12-22T19:27:58.985Z,99969.13
2022-12-22T19:30:27.256Z,99977.50
2022-12-22T19:32:56.990Z,99969.03
2022-12-22T19:35:24.550Z,99975.72
2022-12-22T19:37:53.062Z,99973.47
2022-12-22T19:40:21.916Z,99972.66
2022-12-22T19:42:50.761Z,99986.16
2022-12-22T19:45:22.143Z,99989.28
2022-12-22T19:47:49.229Z,99974.38
2022-12-22T19:50:25.031Z,99976.03
2022-12-22T19:52:52.284Z,99979.06
2022-12-22T19:55:19.340Z,99979.53
2022-12-22T19:57:47.374Z,99975.81
2022-12-22T20:00:26.248Z,99975.69
2022-12-22T20:02:55.320Z,99969.03
2022-12-22T20:05:24.982Z,99967.94
2022-12-22T20:07:53.130Z,99968.84
2022-12-22T20:10:20.345Z,99969.00
2022-12-22T20:12:49.085Z,99958.94
2022-12-22T20:15:19.550Z,99966.56
2022-12-22T20:17:47.067Z,99962.22
2022-12-22T20:20:21.449Z,99959.47
2022-12-22T20:22:54.638Z,99958.81
2022-12-22T20:25:26.781Z,99955.38
2022-12-22T20:27:54.626Z,99955.00
2022-12-22T20:30:28.854Z,99956.09
2022-12-22T20:32:55.598Z,99954.47
2022-12-22T20:35:23.082Z,99958.06
2022-12-22T20:37:51.287Z,99950.88
2022-12-22T20:40:24.723Z,99960.63
2022-12-22T20:42:51.858Z,99961.44
2022-12-22T20:45:21.083Z,99957.31
2022-12-22T20:47:50.095Z,99951.03
2022-12-22T20:50:22.475Z,99955.41
2022-12-22T20:52:50.425Z,99949.25
2022-12-22T20:55:22.793Z,99950.25
2022-12-22T20:57:50.611Z,99950.28
2022-12-22T21:00:17.312Z,99953.81
2022-12-22T21:02:44.697Z,99957.41
2022-12-22T21:05:12.943Z,99962.75
2022-12-22T21:07:39.440Z,99958.19
2022-12-22T21:10:06.807Z,99959.91
2022-12-22T21:12:33.298Z,99959.25
2022-12-22T21:15:00.297Z,99960.13
2022-12-22T21:17:27.394Z,99958.09
2022-12-22T21:19:53.913Z,99957.34
2022-12-22T21:22:20.352Z,99961.53
2022-12-22T21:24:46.827Z,99952.31
2022-12-22T21:27:18.487Z,99954.78
2022-12-22T21:29:45.042Z,99963.59
2022-12-22T21:32:15.412Z,99959.31
2022-12-22T21:34:42.614Z,99960.81
2022-12-22T21:37:16.137Z,99963.28
2022-12-22T21:39:44.778Z,99970.88
2022-12-22T21:42:18.647Z,99969.16
2022-12-22T21:44:45.808Z,99971.88
2022-12-22T21:47:14.440Z,99960.63
2022-12-22T21:49:41.683Z,99970.78
2022-12-22T21:52:08.178Z,99967.72
2022-12-22T21:54:34.656Z,99970.22
2022-12-22T21:57:01.524Z,99974.47
2022-12-22T21:59:28.536Z,99965.88
2022-12-22T22:01:56.681Z,99976.94
2022-12-22T22:04:24.376Z,99969.03
2022-12-22T22:06:50.843Z,99956.88
2022-12-22T22:09:17.313Z,99967.38
2022-12-22T22:12:02.486Z,99970.84
2022-12-22T22:14:28.954Z,99961.75
2022-12-22T22:16:55.856Z,99960.91
2022-12-22T22:19:22.399Z,99958.13
2022-12-22T22:21:48.924Z,99953.91
2022-12-22T22:24:15.381Z,99958.00
2022-12-22T22:26:45.143Z,99953.19
2022-12-22T22:29:11.711Z,99947.84
2022-12-22T22:31:38.449Z,99943.56
2022-12-22T22:34:05.173Z,99950.59
2022-12-22T22:36:31.681Z,99948.78
2022-12-22T22:38:58.170Z,99940.28
2022-12-22T22:41:25.589Z,99944.56
2022-12-22T22:43:55.114Z,99936.66
2022-12-22T22:46:21.772Z,99935.44
2022-12-22T22:48:48.424Z,99932.22
2022-12-22T22:51:14.898Z,99926.00
2022-12-22T22:53:41.388Z,99928.03
2022-12-22T22:56:08.126Z,99932.09
2022-12-22T22:58:36.044Z,99929.66
2022-12-22T23:01:06.948Z,99929.75
2022-12-22T23:03:34.290Z,99926.19
2022-12-22T23:06:05.312Z,99927.66
2022-12-22T23:08:33.772Z,99934.72
2022-12-22T23:11:01.234Z,99930.75
2022-12-22T23:13:28.811Z,99923.66
2022-12-22T23:16:01.052Z,99923.81
2022-12-22T23:18:28.240Z,99926.28
2022-12-22T23:20:57.867Z,99919.28
2022-12-22T23:23:24.527Z,99923.72
2022-12-22T23:25:54.928Z,99914.97
2022-12-22T23:28:21.369Z,99914.16
2022-12-22T23:30:49.625Z,99906.25
2022-12-22T23:33:17.145Z,99902.91
2022-12-22T23:35:46.688Z,99904.63
2022-12-22T23:38:13.940Z,99902.97
2022-12-22T23:40:56.247Z,99895.13
2022-12-22T23:43:22.801Z,99898.31
2022-12-22T23:45:49.289Z,99897.50
2022-12-22T23:48:15.869Z,99906.34
2022-12-22T23:50:45.774Z,99904.56
2022-12-22T23:53:12.257Z,99899.34
2022-12-22T23:55:43.522Z,99895.16
2022-12-22T23:58:10.066Z,99893.31
